Time;durP1;ratioP1;P1;durP2;ratioP2;P2;SDS_P1;SDS_P2;PMS_P1;PMS_P2;Temp;Humidity;BMP_temperature;BMP_pressure;BME280_temperature;BME280_humidity;BME280_pressure;Samples;Min_cycle;Max_cycle;Signal;HPM_P1;HPM_P2
2023/06/14 00:01:34;;;;;;;4.13;2.17;;;;;;;14.15;57.60;101053.28;5011008;28;20562;-71
2023/06/14 00:04:01;;;;;;;5.50;2.47;;;;;;;14.09;57.18;101050.13;5011688;28;20284;-71
2023/06/14 00:06:27;;;;;;;2.47;2.17;;;;;;;14.05;56.87;101051.13;5011931;28;20671;-71
2023/06/14 00:08:54;;;;;;;2.60;2.40;;;;;;;14.00;57.99;101054.78;5010312;28;20629;-71
2023/06/14 00:11:20;;;;;;;4.33;2.43;;;;;;;13.94;57.83;101053.47;5012049;28;20800;-71
2023/06/14 00:13:47;;;;;;;2.73;2.30;;;;;;;13.86;57.85;101058.91;5026146;28;20229;-71
2023/06/14 00:16:13;;;;;;;4.07;2.43;;;;;;;13.81;57.87;101054.59;5011631;28;20205;-71
2023/06/14 00:18:41;;;;;;;5.70;2.50;;;;;;;13.74;57.72;101065.03;5019848;28;20280;-70
2023/06/14 00:21:08;;;;;;;2.93;2.47;;;;;;;13.69;58.21;101059.94;5011099;28;20210;-71
2023/06/14 00:23:37;;;;;;;3.30;2.50;;;;;;;13.63;59.10;101057.84;5010964;28;20255;-71
2023/06/14 00:26:04;;;;;;;3.27;2.47;;;;;;;13.56;58.10;101055.75;5006211;28;20551;-71
2023/06/14 00:28:30;;;;;;;8.37;2.60;;;;;;;13.48;59.78;101051.34;5012832;28;20754;-71
2023/06/14 00:30:56;;;;;;;3.87;2.80;;;;;;;13.44;58.14;101054.97;5010501;28;20205;-71
2023/06/14 00:33:24;;;;;;;3.10;2.80;;;;;;;13.36;59.14;101055.88;5011783;28;20221;-71
2023/06/14 00:35:53;;;;;;;4.13;3.07;;;;;;;13.30;59.65;101055.31;5026034;28;20223;-71
2023/06/14 00:38:20;;;;;;;5.53;2.60;;;;;;;13.24;60.06;101043.38;5008722;28;20505;-71
2023/06/14 00:40:47;;;;;;;3.77;2.90;;;;;;;13.21;60.22;101038.75;5011235;28;20227;-70
2023/06/14 00:43:16;;;;;;;3.20;2.60;;;;;;;13.17;59.89;101045.03;5008209;28;20221;-71
2023/06/14 00:45:44;;;;;;;3.97;2.83;;;;;;;13.12;61.69;101046.03;5011291;28;20201;-71
2023/06/14 00:48:11;;;;;;;5.30;2.70;;;;;;;13.09;60.27;101045.91;5021181;28;20315;-70
2023/06/14 00:50:38;;;;;;;3.40;2.67;;;;;;;13.04;60.46;101036.28;5011069;28;20196;-70
2023/06/14 00:53:06;;;;;;;3.00;2.67;;;;;;;13.00;60.38;101035.41;5009369;28;20232;-71
2023/06/14 00:55:35;;;;;;;4.30;3.00;;;;;;;12.97;60.79;101033.41;5010956;28;20686;-71
2023/06/14 00:58:01;;;;;;;4.30;3.00;;;;;;;12.95;62.49;101032.16;5016307;28;20215;-70
2023/06/14 01:00:28;;;;;;;5.97;3.30;;;;;;;12.89;60.33;101025.53;5010752;28;20204;-71
2023/06/14 01:02:56;;;;;;;2.83;2.63;;;;;;;12.85;62.87;101036.03;5010007;28;20229;-71
2023/06/14 01:05:23;;;;;;;4.77;3.37;;;;;;;12.82;62.20;101033.25;5018401;28;20201;-71
2023/06/14 01:08:07;;;;;;;5.10;3.17;;;;;;;12.79;61.46;101028.63;5004091;28;20632;-70
2023/06/14 01:10:53;;;;;;;3.63;2.93;;;;;;;12.75;61.61;101038.31;5009748;28;20204;-71
2023/06/14 01:13:22;;;;;;;3.93;3.10;;;;;;;12.71;60.43;101032.91;5014606;28;20314;-71
2023/06/14 01:15:50;;;;;;;4.50;3.20;;;;;;;12.68;61.24;101040.75;5007167;28;20703;-71
2023/06/14 01:18:18;;;;;;;4.70;3.27;;;;;;;12.66;62.82;101033.13;5011081;28;20205;-71
2023/06/14 01:20:49;;;;;;;3.17;2.87;;;;;;;12.63;62.29;101035.66;5010187;28;20706;-70
2023/06/14 01:23:17;;;;;;;4.17;3.43;;;;;;;12.58;61.53;101047.22;5020811;28;20663;-70
2023/06/14 01:25:44;;;;;;;4.83;3.23;;;;;;;12.52;62.07;101037.91;5010918;28;20224;-71
2023/06/14 01:28:12;;;;;;;5.60;3.63;;;;;;;12.50;61.96;101039.34;5012112;28;20217;-71
2023/06/14 01:30:45;;;;;;;7.03;3.93;;;;;;;12.46;63.56;101039.22;5011944;28;20200;-70
2023/06/14 01:33:13;;;;;;;6.20;3.50;;;;;;;12.42;63.10;101034.91;5013313;28;20220;-70
2023/06/14 01:35:40;;;;;;;8.80;3.70;;;;;;;12.37;62.25;101035.13;5010857;28;20205;-70
2023/06/14 01:38:08;;;;;;;4.53;3.73;;;;;;;12.35;62.67;101046.03;5001226;28;20382;-71
2023/06/14 01:40:37;;;;;;;4.10;3.60;;;;;;;12.31;62.60;101045.13;5011891;28;20570;-70
2023/06/14 01:43:06;;;;;;;4.37;3.50;;;;;;;12.29;63.90;101046.56;5012297;28;20231;-70
2023/06/14 01:45:33;;;;;;;4.00;3.60;;;;;;;12.26;63.41;101045.34;5011718;28;20215;-70
2023/06/14 01:48:00;;;;;;;4.40;4.00;;;;;;;12.24;64.79;101049.41;5019008;28;20243;-71
2023/06/14 01:50:29;;;;;;;4.37;3.97;;;;;;;12.22;64.18;101048.97;5015915;28;20215;-71
2023/06/14 01:52:57;;;;;;;6.83;3.73;;;;;;;12.18;64.49;101048.06;5027399;28;20637;-70
2023/06/14 01:55:24;;;;;;;4.27;3.87;;;;;;;12.16;63.71;101045.72;5012704;28;20575;-71
2023/06/14 01:57:52;;;;;;;4.53;4.13;;;;;;;12.14;64.13;101055.88;5025216;28;20203;-70
2023/06/14 02:00:22;;;;;;;5.20;4.20;;;;;;;12.11;63.68;101055.75;5016148;28;20204;-71
2023/06/14 02:02:49;;;;;;;5.30;4.17;;;;;;;12.06;63.98;101056.72;5025650;28;20220;-71
2023/06/14 02:05:18;;;;;;;5.00;3.70;;;;;;;12.04;64.94;101050.19;5013022;28;20214;-71
2023/06/14 02:07:45;;;;;;;5.80;4.40;;;;;;;11.99;63.56;101058.31;5011690;28;20691;-70
2023/06/14 02:10:11;;;;;;;6.90;4.63;;;;;;;11.96;63.76;101056.34;5011638;28;20205;-71
2023/06/14 02:12:38;;;;;;;7.07;4.60;;;;;;;11.93;64.16;101059.59;5005829;28;20208;-70
2023/06/14 02:15:08;;;;;;;7.73;4.70;;;;;;;11.92;64.30;101063.34;5012349;28;20235;-71
2023/06/14 02:17:35;;;;;;;5.30;4.73;;;;;;;11.89;63.70;101058.69;5023343;28;20250;-71
2023/06/14 02:20:09;;;;;;;6.07;4.83;;;;;;;11.85;64.49;101065.75;4977305;28;1007322;-70
2023/06/14 02:22:35;;;;;;;5.40;4.90;;;;;;;11.84;65.30;101059.66;5012950;28;20579;-70
2023/06/14 02:25:02;;;;;;;5.47;4.67;;;;;;;11.82;65.44;101061.88;5012678;28;20544;-70
2023/06/14 02:27:28;;;;;;;4.93;4.20;;;;;;;11.80;64.12;101066.69;5011937;28;20223;-70
2023/06/14 02:29:54;;;;;;;11.57;5.10;;;;;;;11.76;64.51;101063.13;5019665;28;20233;-71
2023/06/14 02:32:22;;;;;;;7.30;4.77;;;;;;;11.71;64.98;101066.00;5013460;28;20198;-70
2023/06/14 02:34:50;;;;;;;7.07;5.47;;;;;;;11.73;67.27;101066.44;5012548;28;20224;-70
2023/06/14 02:37:16;;;;;;;5.97;4.90;;;;;;;11.70;67.92;101071.59;5011950;28;20223;-70
2023/06/14 02:39:43;;;;;;;5.83;4.77;;;;;;;11.65;67.05;101077.06;5013401;28;20578;-70
2023/06/14 02:42:14;;;;;;;7.07;5.00;;;;;;;11.62;67.03;101073.19;5018923;28;20207;-70
2023/06/14 02:44:43;;;;;;;5.77;5.27;;;;;;;11.60;65.86;101074.63;5014876;28;20272;-70
2023/06/14 02:47:09;;;;;;;6.20;5.10;;;;;;;11.57;66.04;101073.34;5014248;28;20206;-70
2023/06/14 02:49:37;;;;;;;5.50;5.00;;;;;;;11.55;66.11;101074.75;5014247;28;20716;-70
2023/06/14 02:52:05;;;;;;;6.60;5.27;;;;;;;11.52;66.21;101068.25;5012599;28;20193;-70
2023/06/14 02:54:31;;;;;;;7.70;6.13;;;;;;;11.51;67.46;101073.84;5013756;28;20647;-70
2023/06/14 02:56:58;;;;;;;7.53;6.10;;;;;;;11.46;66.70;101076.66;5015844;28;20687;-71
2023/06/14 02:59:25;;;;;;;8.27;5.67;;;;;;;11.44;67.50;101078.88;5025066;28;20245;-70
2023/06/14 03:01:52;;;;;;;6.17;5.57;;;;;;;11.43;66.63;101080.72;5011636;28;20221;-70
2023/06/14 03:04:18;;;;;;;9.57;6.20;;;;;;;11.43;67.66;101088.66;5011518;28;20570;-71
2023/06/14 03:06:50;;;;;;;8.67;6.27;;;;;;;11.43;68.43;101077.31;5010292;28;20285;-70
2023/06/14 03:09:20;;;;;;;7.27;6.17;;;;;;;11.42;68.78;101079.19;5008764;28;20214;-70
2023/06/14 03:11:47;;;;;;;7.97;6.33;;;;;;;11.40;66.81;101070.00;5010698;28;20206;-70
2023/06/14 03:14:14;;;;;;;8.00;6.67;;;;;;;11.40;68.43;101080.59;5011584;28;20224;-70
2023/06/14 03:16:42;;;;;;;7.90;7.10;;;;;;;11.39;67.31;101081.69;5012503;28;20626;-70
2023/06/14 03:19:11;;;;;;;7.63;6.53;;;;;;;11.39;68.51;101084.34;5014385;28;20736;-71
2023/06/14 03:21:38;;;;;;;9.53;7.40;;;;;;;11.39;67.89;101079.81;5008207;28;20503;-70
2023/06/14 03:24:07;;;;;;;7.90;7.07;;;;;;;11.42;68.43;101086.31;5011317;28;20225;-70
2023/06/14 03:26:36;;;;;;;9.17;7.27;;;;;;;11.43;67.91;101078.09;5011180;28;20252;-70
2023/06/14 03:29:03;;;;;;;9.23;6.70;;;;;;;11.47;68.56;101083.50;5011268;28;20219;-70
2023/06/14 03:31:35;;;;;;;8.17;7.07;;;;;;;11.49;67.71;101090.03;5010970;28;20276;-70
2023/06/14 03:34:03;;;;;;;9.23;7.03;;;;;;;11.52;67.65;101086.75;5008022;28;20207;-71
2023/06/14 03:36:30;;;;;;;8.17;7.00;;;;;;;11.57;69.30;101094.50;5010495;28;20229;-70
2023/06/14 03:38:59;;;;;;;7.43;6.70;;;;;;;11.60;67.35;101096.53;5011180;28;20198;-70
2023/06/14 03:41:27;;;;;;;8.57;6.93;;;;;;;11.67;68.30;101094.19;5012290;28;20217;-71
2023/06/14 03:43:57;;;;;;;9.17;6.60;;;;;;;11.76;67.83;101096.78;5011075;28;20575;-70
2023/06/14 03:46:23;;;;;;;7.87;6.87;;;;;;;11.84;67.96;101096.72;5007570;28;20208;-71
2023/06/14 03:48:50;;;;;;;7.90;6.33;;;;;;;11.87;67.23;101097.94;5002931;28;20228;-71
2023/06/14 03:51:18;;;;;;;8.57;7.30;;;;;;;11.92;67.74;101119.72;5010856;28;20201;-71
2023/06/14 03:53:44;;;;;;;8.33;6.30;;;;;;;11.97;68.67;101118.75;5010445;28;20236;-70
2023/06/14 03:56:11;;;;;;;8.23;6.70;;;;;;;12.05;67.08;101123.97;5006663;28;20263;-71
2023/06/14 03:58:44;;;;;;;7.30;6.60;;;;;;;12.07;67.57;101108.53;5010406;28;20196;-70
2023/06/14 04:01:11;;;;;;;8.33;6.50;;;;;;;12.12;67.04;101126.88;5012092;28;20203;-70
2023/06/14 04:03:40;;;;;;;11.93;7.57;;;;;;;12.16;67.55;101133.09;5010362;28;20251;-71
2023/06/14 04:06:07;;;;;;;8.97;7.07;;;;;;;12.23;67.70;101135.22;5011696;28;20235;-71
2023/06/14 04:08:34;;;;;;;12.10;7.37;;;;;;;12.29;67.52;101120.69;5010193;28;20234;-71
2023/06/14 04:11:00;;;;;;;8.10;7.13;;;;;;;12.35;66.81;101125.50;5022581;28;20204;-70
2023/06/14 04:13:27;;;;;;;10.30;8.23;;;;;;;12.42;67.29;101135.56;5015111;28;20596;-71
2023/06/14 04:15:56;;;;;;;9.50;7.30;;;;;;;12.49;68.08;101128.66;5010376;28;20262;-71
2023/06/14 04:18:27;;;;;;;7.80;6.90;;;;;;;12.55;67.28;101132.66;5010493;28;20223;-71
2023/06/14 04:20:54;;;;;;;9.17;7.23;;;;;;;12.58;66.28;101134.63;5014778;28;20224;-70
2023/06/14 04:23:23;;;;;;;8.37;7.53;;;;;;;12.60;66.54;101148.34;5006815;28;20311;-71
2023/06/14 04:25:50;;;;;;;8.60;7.23;;;;;;;12.60;66.35;101145.69;5011250;28;20659;-71
2023/06/14 04:28:18;;;;;;;9.67;7.13;;;;;;;12.62;66.90;101151.44;5014263;28;20295;-71
2023/06/14 04:30:47;;;;;;;9.50;7.83;;;;;;;12.60;66.71;101145.69;5012225;28;20268;-71
2023/06/14 04:33:15;;;;;;;9.23;8.00;;;;;;;12.60;67.37;101143.03;5006863;28;20225;-71
2023/06/14 04:35:42;;;;;;;9.47;7.80;;;;;;;12.64;68.22;101146.59;5006879;28;20580;-71
2023/06/14 04:38:10;;;;;;;9.83;8.67;;;;;;;12.71;67.22;101156.66;5011350;28;20184;-70
2023/06/14 04:40:42;;;;;;;10.30;8.33;;;;;;;12.77;66.51;101142.88;5009567;28;20292;-71
2023/06/14 04:43:12;;;;;;;15.57;8.37;;;;;;;12.86;66.78;101146.25;5009437;28;20232;-71
2023/06/14 04:45:40;;;;;;;11.80;8.07;;;;;;;12.97;66.60;101144.75;5007169;28;20217;-70
2023/06/14 04:48:08;;;;;;;9.03;7.50;;;;;;;13.12;67.29;101143.34;5013434;28;20196;-71
2023/06/14 04:50:40;;;;;;;10.90;7.83;;;;;;;13.26;67.67;101147.25;5011694;28;20204;-71
2023/06/14 04:53:07;;;;;;;9.87;7.90;;;;;;;13.39;66.76;101151.47;5004807;28;20216;-71
2023/06/14 04:55:34;;;;;;;8.80;7.53;;;;;;;13.53;65.95;101143.19;5007088;28;20206;-71
2023/06/14 04:58:05;;;;;;;8.90;7.80;;;;;;;13.70;66.17;101141.09;5002196;28;20571;-70
2023/06/14 05:00:32;;;;;;;10.30;7.67;;;;;;;13.85;66.18;101145.75;5009359;28;20346;-71
2023/06/14 05:03:00;;;;;;;10.10;7.53;;;;;;;13.97;65.16;101137.75;5008768;28;20220;-71
2023/06/14 05:05:27;;;;;;;10.33;8.27;;;;;;;14.06;65.17;101129.66;5009072;28;20204;-71
2023/06/14 05:07:55;;;;;;;9.03;7.87;;;;;;;14.11;65.17;101137.41;5009338;28;20206;-71
2023/06/14 05:10:22;;;;;;;9.23;7.83;;;;;;;14.14;64.47;101139.41;5009021;28;20228;-71
2023/06/14 05:12:48;;;;;;;9.17;7.37;;;;;;;14.17;64.52;101138.72;5010097;28;20229;-71
2023/06/14 05:15:16;;;;;;;10.63;7.70;;;;;;;14.21;64.87;101144.94;5013595;28;20839;-71
2023/06/14 05:17:43;;;;;;;8.57;7.50;;;;;;;14.19;64.59;101150.56;5020276;28;20208;-71
2023/06/14 05:20:11;;;;;;;8.90;7.67;;;;;;;14.27;64.67;101149.69;5019821;28;20196;-71
2023/06/14 05:22:40;;;;;;;8.67;7.77;;;;;;;14.31;64.11;101155.88;5014108;28;20206;-70
2023/06/14 05:25:08;;;;;;;12.43;8.27;;;;;;;14.32;63.89;101152.13;5010429;28;20198;-71
2023/06/14 05:27:36;;;;;;;8.50;7.60;;;;;;;14.33;63.59;101158.97;5007248;28;20213;-71
2023/06/14 05:30:03;;;;;;;10.70;8.10;;;;;;;14.36;63.95;101153.00;5002112;28;20298;-71
2023/06/14 05:32:31;;;;;;;8.60;7.70;;;;;;;14.38;64.34;101150.00;5015416;28;20303;-71
2023/06/14 05:34:57;;;;;;;9.37;7.97;;;;;;;14.41;64.30;101150.09;5009943;28;20291;-71
2023/06/14 05:37:23;;;;;;;10.23;8.10;;;;;;;14.44;63.96;101153.97;5012100;28;20208;-71
2023/06/14 05:39:55;;;;;;;9.20;8.10;;;;;;;14.47;64.46;101147.97;5008017;28;20212;-71
2023/06/14 05:42:23;;;;;;;11.13;8.27;;;;;;;14.47;64.09;101151.41;5009988;28;20730;-71
2023/06/14 05:44:49;;;;;;;11.53;7.90;;;;;;;14.46;64.12;101154.41;5010012;28;20699;-71
2023/06/14 05:47:16;;;;;;;9.43;8.43;;;;;;;14.49;64.10;101149.19;5010121;28;20206;-71
2023/06/14 05:49:42;;;;;;;11.20;8.50;;;;;;;14.46;64.04;101160.50;5012224;28;20236;-71
2023/06/14 05:52:10;;;;;;;9.10;7.37;;;;;;;14.46;64.12;101165.81;5015401;28;20201;-71
2023/06/14 05:54:36;;;;;;;9.67;8.07;;;;;;;14.46;63.79;101165.03;5012151;28;20228;-71
2023/06/14 05:57:04;;;;;;;9.67;8.13;;;;;;;14.46;64.42;101168.47;5008727;28;20204;-71
2023/06/14 05:59:32;;;;;;;10.93;8.17;;;;;;;14.48;63.76;101160.94;5012082;28;20294;-71
2023/06/14 06:01:58;;;;;;;9.37;7.63;;;;;;;14.48;64.02;101162.78;5013265;28;20219;-71
2023/06/14 06:04:25;;;;;;;9.77;7.90;;;;;;;14.50;64.40;101160.59;5017523;28;20582;-71
2023/06/14 06:06:51;;;;;;;9.13;8.13;;;;;;;14.50;63.63;101163.25;5016555;28;20201;-71
2023/06/14 06:09:19;;;;;;;10.07;8.20;;;;;;;14.50;63.24;101161.34;5005175;28;20216;-71
2023/06/14 06:11:45;;;;;;;10.27;7.53;;;;;;;14.53;64.13;101165.22;5012981;28;20225;-71
2023/06/14 06:14:11;;;;;;;8.13;7.27;;;;;;;14.56;64.12;101164.56;5016099;28;20315;-71
2023/06/14 06:16:41;;;;;;;8.40;7.43;;;;;;;14.58;63.86;101171.09;5019369;28;20204;-71
2023/06/14 06:19:08;;;;;;;7.70;6.90;;;;;;;14.63;64.31;101170.06;5014048;28;20208;-71
2023/06/14 06:21:34;;;;;;;8.10;6.97;;;;;;;14.67;64.13;101162.97;5012545;28;20219;-71
2023/06/14 06:24:03;;;;;;;9.33;7.33;;;;;;;14.73;64.83;101161.59;5010774;28;20212;-71
2023/06/14 06:26:29;;;;;;;10.83;7.47;;;;;;;14.78;63.64;101169.34;5011733;28;20219;-71
2023/06/14 06:28:57;;;;;;;11.67;7.40;;;;;;;14.82;63.17;101172.88;5013988;28;20315;-71
2023/06/14 06:31:23;;;;;;;11.80;7.80;;;;;;;14.88;63.50;101171.50;5010904;28;20204;-71
2023/06/14 06:33:51;;;;;;;10.77;7.53;;;;;;;14.92;63.07;101175.84;5010533;28;20216;-71
2023/06/14 06:36:17;;;;;;;8.17;7.30;;;;;;;15.00;63.46;101174.91;5022779;28;20562;-71
2023/06/14 06:38:44;;;;;;;9.43;7.73;;;;;;;15.06;62.93;101181.50;5013166;28;20206;-71
2023/06/14 06:41:10;;;;;;;8.47;7.57;;;;;;;15.13;62.52;101181.72;5014187;28;20211;-71
2023/06/14 06:43:36;;;;;;;8.70;7.27;;;;;;;15.19;62.71;101179.56;5017672;28;20296;-71
2023/06/14 06:46:03;;;;;;;10.80;6.97;;;;;;;15.25;62.65;101189.63;5011186;28;20207;-71
2023/06/14 06:48:29;;;;;;;7.73;6.93;;;;;;;15.29;62.27;101182.50;5018348;28;20298;-71
2023/06/14 06:50:57;;;;;;;11.57;7.70;;;;;;;15.34;62.26;101186.81;5014064;28;20204;-71
2023/06/14 06:53:23;;;;;;;9.70;7.43;;;;;;;15.39;61.99;101186.56;5014528;28;20244;-71
2023/06/14 06:55:49;;;;;;;8.00;7.20;;;;;;;15.39;62.35;101189.22;5020261;28;20667;-71
2023/06/14 06:58:19;;;;;;;9.13;7.37;;;;;;;15.46;62.12;101189.41;5012390;28;20220;-71
2023/06/14 07:00:46;;;;;;;10.23;7.30;;;;;;;15.54;62.28;101199.91;5004026;28;20289;-71
2023/06/14 07:03:12;;;;;;;9.07;6.73;;;;;;;15.65;62.46;101192.16;5012063;28;20279;-71
2023/06/14 07:05:41;;;;;;;10.63;7.20;;;;;;;15.79;62.00;101197.84;5012388;28;20563;-71
2023/06/14 07:08:09;;;;;;;8.00;7.07;;;;;;;15.93;61.74;101198.94;5013890;28;20258;-71
2023/06/14 07:10:37;;;;;;;9.23;7.13;;;;;;;16.10;62.10;101206.53;5011098;28;20287;-71
2023/06/14 07:13:04;;;;;;;10.30;7.90;;;;;;;16.19;61.21;101203.72;5018336;28;20296;-71
2023/06/14 07:15:30;;;;;;;8.47;7.53;;;;;;;16.31;61.18;101211.59;5012623;28;20672;-71
2023/06/14 07:17:59;;;;;;;8.10;7.30;;;;;;;16.42;61.03;101210.72;5010120;28;20578;-71
2023/06/14 07:20:26;;;;;;;10.30;7.20;;;;;;;16.54;60.58;101215.94;5012238;28;20675;-71
2023/06/14 07:22:52;;;;;;;10.70;7.30;;;;;;;16.63;60.32;101208.50;5015133;28;20218;-71
2023/06/14 07:25:20;;;;;;;8.30;7.10;;;;;;;16.73;60.50;101212.50;5019782;28;20215;-71
2023/06/14 07:27:47;;;;;;;8.20;6.77;;;;;;;16.83;60.41;101207.38;5012854;28;20203;-71
2023/06/14 07:30:13;;;;;;;10.47;6.70;;;;;;;16.97;60.38;101210.31;5010724;28;20223;-71
2023/06/14 07:32:40;;;;;;;8.97;7.23;;;;;;;17.08;59.53;101210.53;5010620;28;20471;-71
2023/06/14 07:35:07;;;;;;;8.57;6.97;;;;;;;17.21;59.52;101206.56;5012538;28;20207;-71
2023/06/14 07:37:34;;;;;;;9.97;7.80;;;;;;;17.31;59.04;101209.41;5004931;28;20196;-71
2023/06/14 07:40:00;;;;;;;8.93;7.70;;;;;;;17.40;59.25;101203.88;5012410;28;20187;-71
2023/06/14 07:42:28;;;;;;;10.60;7.07;;;;;;;17.47;59.23;101201.31;5013896;28;20687;-71
2023/06/14 07:44:54;;;;;;;8.07;7.27;;;;;;;17.55;58.77;101200.31;5016951;28;20574;-71
2023/06/14 07:47:20;;;;;;;9.07;7.10;;;;;;;17.62;58.65;101211.13;5010953;28;20271;-71
2023/06/14 07:49:47;;;;;;;10.77;7.17;;;;;;;17.68;58.91;101210.47;5016513;28;20223;-71
2023/06/14 07:52:13;;;;;;;9.03;7.00;;;;;;;17.77;58.50;101210.22;5010091;28;20201;-71
2023/06/14 07:54:40;;;;;;;7.90;6.90;;;;;;;17.84;58.38;101194.28;5011118;28;20233;-71
2023/06/14 07:57:07;;;;;;;9.43;6.90;;;;;;;17.92;57.60;101210.09;5011859;28;20652;-71
2023/06/14 07:59:35;;;;;;;8.00;6.83;;;;;;;17.97;57.42;101203.66;5008865;28;20196;-71
2023/06/14 08:02:01;;;;;;;8.50;7.23;;;;;;;18.03;57.32;101210.22;5013834;28;20684;-71
2023/06/14 08:04:27;;;;;;;8.53;6.53;;;;;;;18.14;57.78;101208.47;5016357;28;20281;-71
2023/06/14 08:06:54;;;;;;;8.13;6.70;;;;;;;18.28;57.79;101219.38;5013439;28;20692;-71
2023/06/14 08:09:20;;;;;;;9.07;6.57;;;;;;;18.42;57.46;101214.25;5012719;28;20220;-71
2023/06/14 08:11:47;;;;;;;10.20;7.10;;;;;;;18.62;56.80;101221.03;5015016;28;20540;-71
2023/06/14 08:14:13;;;;;;;10.13;6.97;;;;;;;18.75;56.51;101216.97;5010758;28;20330;-71
2023/06/14 08:16:41;;;;;;;8.00;6.60;;;;;;;18.88;56.02;101224.38;5015775;28;20310;-71
2023/06/14 08:19:07;;;;;;;8.57;6.17;;;;;;;19.01;56.35;101225.69;5006079;28;20208;-71
2023/06/14 08:21:36;;;;;;;7.17;6.07;;;;;;;19.11;56.16;101222.34;5001442;28;20228;-71
2023/06/14 08:24:03;;;;;;;9.03;6.10;;;;;;;19.21;55.88;101227.09;5010496;28;20220;-71
2023/06/14 08:26:31;;;;;;;9.10;5.77;;;;;;;19.33;55.43;101224.13;5003464;28;20216;-71
2023/06/14 08:28:58;;;;;;;8.97;5.13;;;;;;;19.37;53.94;101222.28;5015893;28;20200;-71
2023/06/14 08:31:25;;;;;;;8.80;5.53;;;;;;;19.37;53.41;101224.16;5007480;28;20227;-71
2023/06/14 08:33:52;;;;;;;7.13;5.27;;;;;;;19.47;54.63;101215.47;5010707;28;20231;-71
2023/06/14 08:36:19;;;;;;;6.23;5.23;;;;;;;19.50;53.59;101222.78;5016317;28;20200;-71
2023/06/14 08:38:45;;;;;;;8.80;5.60;;;;;;;19.53;54.15;101212.09;5008031;28;20215;-71
2023/06/14 08:41:13;;;;;;;6.23;5.13;;;;;;;19.59;54.32;101207.91;5006714;28;20615;-71
2023/06/14 08:43:40;;;;;;;7.33;5.30;;;;;;;19.66;53.44;101217.94;5008966;28;20278;-71
2023/06/14 08:46:08;;;;;;;9.23;5.20;;;;;;;19.70;53.76;101216.81;5009615;28;20204;-71
2023/06/14 08:48:35;;;;;;;7.00;5.40;;;;;;;19.69;53.32;101217.16;5012557;28;20192;-71
2023/06/14 08:51:04;;;;;;;6.87;4.57;;;;;;;19.84;52.50;101218.81;5010104;28;20219;-71
2023/06/14 08:53:33;;;;;;;5.93;4.77;;;;;;;19.83;53.35;101215.41;5009019;28;20224;-71
2023/06/14 08:56:01;;;;;;;7.17;4.63;;;;;;;19.84;52.82;101216.16;5009140;28;20247;-71
2023/06/14 08:58:29;;;;;;;4.93;4.43;;;;;;;19.82;53.11;101213.81;5008397;28;20274;-71
2023/06/14 09:00:56;;;;;;;4.70;3.87;;;;;;;19.79;52.63;101211.13;5009856;28;20207;-71
2023/06/14 09:03:23;;;;;;;4.53;4.13;;;;;;;19.76;53.43;101218.00;5007566;28;20220;-71
2023/06/14 09:05:49;;;;;;;6.37;4.17;;;;;;;19.72;53.36;101221.81;5008061;28;20204;-71
2023/06/14 09:08:18;;;;;;;5.13;4.20;;;;;;;19.68;53.13;101226.34;5010827;28;20210;-71
2023/06/14 09:10:45;;;;;;;6.90;3.87;;;;;;;19.71;52.53;101215.66;5006971;28;20295;-71
2023/06/14 09:13:12;;;;;;;4.43;3.77;;;;;;;19.79;53.50;101227.22;5014141;28;20230;-71
2023/06/14 09:15:39;;;;;;;7.00;4.13;;;;;;;19.80;52.32;101224.16;5021065;28;20200;-71
2023/06/14 09:18:05;;;;;;;5.33;4.17;;;;;;;19.86;52.56;101217.31;5022420;28;20204;-71
2023/06/14 09:20:32;;;;;;;4.33;3.93;;;;;;;19.89;52.40;101219.25;5012038;28;20258;-71
2023/06/14 09:22:59;;;;;;;4.23;3.83;;;;;;;19.95;51.87;101217.00;5015227;28;20621;-71
2023/06/14 09:25:27;;;;;;;5.03;4.53;;;;;;;20.03;52.06;101218.59;5015279;28;20210;-71
2023/06/14 09:27:54;;;;;;;5.63;3.87;;;;;;;20.11;52.52;101225.56;5010051;28;20406;-71
2023/06/14 09:30:21;;;;;;;5.13;3.33;;;;;;;20.17;51.47;101221.41;5003975;28;20217;-71
2023/06/14 09:32:48;;;;;;;5.47;3.50;;;;;;;20.21;51.12;101217.59;5007023;28;20203;-71
2023/06/14 09:35:18;;;;;;;3.40;2.87;;;;;;;20.26;51.75;101221.81;5012562;28;20201;-71
2023/06/14 09:37:45;;;;;;;6.27;3.30;;;;;;;20.28;50.38;101214.19;5012763;28;20780;-71
2023/06/14 09:40:11;;;;;;;3.10;2.80;;;;;;;20.25;51.02;101209.56;5020186;28;20221;-71
2023/06/14 09:42:41;;;;;;;3.43;2.93;;;;;;;20.25;49.40;101214.91;5012965;28;20201;-71
2023/06/14 09:45:10;;;;;;;2.90;2.60;;;;;;;20.18;49.27;101215.63;5013230;28;20247;-71
2023/06/14 09:47:37;;;;;;;7.10;3.20;;;;;;;20.11;49.23;101217.50;5008095;28;20193;-71
2023/06/14 09:50:03;;;;;;;3.90;2.93;;;;;;;20.03;49.87;101219.34;5007510;28;20220;-71
2023/06/14 09:52:31;;;;;;;3.47;2.70;;;;;;;19.92;49.84;101223.84;5014807;28;20231;-71
2023/06/14 09:54:59;;;;;;;4.43;2.97;;;;;;;19.82;50.02;101224.56;5018247;28;20203;-71
2023/06/14 09:57:29;;;;;;;4.10;2.97;;;;;;;19.69;49.98;101220.63;5013850;28;20204;-71
2023/06/14 10:00:00;;;;;;;3.63;2.77;;;;;;;19.60;50.79;101224.75;5013506;28;20212;-71
2023/06/14 10:02:28;;;;;;;5.57;3.00;;;;;;;19.47;50.17;101229.63;5012022;28;20206;-71
2023/06/14 10:05:00;;;;;;;3.27;2.97;;;;;;;19.36;50.58;101222.63;5002730;28;21120;-71
2023/06/14 10:07:31;;;;;;;4.13;3.33;;;;;;;19.30;51.10;101224.84;5012579;28;20204;-71
2023/06/14 10:09:58;;;;;;;3.77;2.90;;;;;;;19.21;51.15;101219.06;5013239;28;20227;-71
2023/06/14 10:12:25;;;;;;;3.70;3.40;;;;;;;19.14;51.03;101221.59;5006399;28;20693;-71
2023/06/14 10:14:53;;;;;;;5.47;3.53;;;;;;;19.09;51.47;101227.28;5016270;28;20220;-71
2023/06/14 10:17:28;;;;;;;5.40;3.10;;;;;;;19.09;51.48;101227.28;5022575;28;20225;-71
2023/06/14 10:19:58;;;;;;;6.03;3.13;;;;;;;19.08;51.30;101225.75;5017933;28;20203;-71
2023/06/14 10:22:29;;;;;;;3.37;2.97;;;;;;;19.10;51.69;101228.06;5012971;28;20213;-71
2023/06/14 10:24:56;;;;;;;4.97;3.10;;;;;;;19.10;51.34;101226.16;5014117;28;20197;-71
2023/06/14 10:27:24;;;;;;;4.00;3.53;;;;;;;19.17;51.46;101220.88;5014273;28;20201;-71
2023/06/14 10:30:05;;;;;;;5.27;3.43;;;;;;;19.27;51.89;101216.78;5011137;28;20205;-71
2023/06/14 10:32:34;;;;;;;5.27;3.43;;;;;;;19.37;51.49;101216.13;5010720;28;20222;-71
2023/06/14 10:35:02;;;;;;;4.57;3.40;;;;;;;19.49;51.30;101203.25;5013174;28;20193;-71
2023/06/14 10:37:28;;;;;;;3.63;2.97;;;;;;;19.66;51.11;101199.94;5022038;28;20207;-71
2023/06/14 10:39:55;;;;;;;5.73;3.20;;;;;;;19.86;50.58;101203.91;5018839;28;20197;-71
2023/06/14 10:42:22;;;;;;;3.50;2.80;;;;;;;20.00;50.24;101205.91;5010051;28;20205;-71
2023/06/14 10:44:51;;;;;;;4.37;3.00;;;;;;;20.12;50.19;101201.03;5008448;28;20229;-71
2023/06/14 10:47:23;;;;;;;4.97;2.90;;;;;;;20.19;49.38;101203.75;5012476;28;20440;-71
2023/06/14 10:49:53;;;;;;;3.00;2.70;;;;;;;20.25;49.68;101198.81;5010436;28;20672;-71
2023/06/14 10:52:23;;;;;;;3.83;3.20;;;;;;;20.31;48.88;101197.31;5012617;28;20739;-71
2023/06/14 10:55:09;;;;;;;5.20;2.70;;;;;;;20.39;49.32;101193.53;5012452;28;20727;-71
2023/06/14 10:57:36;;;;;;;6.33;3.30;;;;;;;20.42;49.42;101187.41;5010112;28;20201;-71
2023/06/14 11:00:12;;;;;;;3.70;2.67;;;;;;;20.48;49.40;101193.97;5014715;28;20684;-71
2023/06/14 11:02:54;;;;;;;3.90;2.57;;;;;;;20.52;48.81;101184.00;5010639;28;20197;-71
2023/06/14 11:05:26;;;;;;;2.83;2.50;;;;;;;20.59;48.78;101184.06;5016086;28;20208;-71
2023/06/14 11:08:18;;;;;;;3.10;2.80;;;;;;;20.66;48.43;101186.75;5011648;28;20268;-71
2023/06/14 11:10:46;;;;;;;3.63;2.80;;;;;;;20.69;47.94;101186.75;5018161;28;20243;-71
2023/06/14 11:13:12;;;;;;;4.50;3.03;;;;;;;20.69;48.30;101180.63;5004905;28;20232;-71
2023/06/14 11:15:44;;;;;;;5.00;2.70;;;;;;;20.67;48.59;101183.69;5011678;28;20201;-71
2023/06/14 11:18:10;;;;;;;4.30;3.13;;;;;;;20.64;48.34;101189.06;5012827;28;20200;-71
2023/06/14 11:20:38;;;;;;;5.57;3.63;;;;;;;20.61;48.45;101189.78;5010218;28;20216;-71
2023/06/14 11:23:05;;;;;;;3.57;2.80;;;;;;;20.53;48.21;101180.94;5009842;28;20722;-71
2023/06/14 11:25:32;;;;;;;3.13;2.70;;;;;;;20.48;48.42;101188.59;5019253;28;20214;-71
2023/06/14 11:27:59;;;;;;;3.10;2.40;;;;;;;20.44;48.61;101185.13;5014744;28;20672;-71